Time;durP1;ratioP1;P1;durP2;ratioP2;P2;SDS_P1;SDS_P2;PMS_P1;PMS_P2;Temp;Humidity;BMP_temperature;BMP_pressure;BME280_temperature;BME280_humidity;BME280_pressure;Samples;Min_cycle;Max_cycle;Signal;HPM_P1;HPM_P2
2022/06/26 00:00:19;;;;;;;12.05;10.40;;;19.30;99.90;;;;;;5033148;28;20037;-76
2022/06/26 00:02:48;;;;;;;13.15;11.27;;;19.40;99.90;;;;;;5015432;28;20053;-76
2022/06/26 00:05:13;;;;;;;16.67;12.57;;;19.30;99.90;;;;;;5032799;28;20045;-76
2022/06/26 00:07:39;;;;;;;13.65;11.52;;;19.40;99.90;;;;;;5033370;28;20372;-76
2022/06/26 00:10:06;;;;;;;13.90;11.32;;;19.30;99.90;;;;;;5015532;28;20037;-77
2022/06/26 00:12:33;;;;;;;12.30;10.77;;;19.40;99.90;;;;;;5033386;28;20124;-76
2022/06/26 00:14:59;;;;;;;15.45;12.23;;;19.30;99.90;;;;;;5032896;28;20052;-77
2022/06/26 00:17:24;;;;;;;14.75;12.48;;;19.30;99.90;;;;;;5033001;28;20567;-76
2022/06/26 00:19:50;;;;;;;14.43;11.93;;;19.20;99.90;;;;;;5032923;28;20510;-76
2022/06/26 00:22:17;;;;;;;13.45;11.93;;;19.40;99.90;;;;;;5032719;28;20402;-76
2022/06/26 00:24:43;;;;;;;12.27;10.90;;;19.30;99.90;;;;;;5032949;28;20035;-76
2022/06/26 00:27:08;;;;;;;13.23;11.88;;;19.30;99.90;;;;;;5014913;28;20060;-76
2022/06/26 00:29:34;;;;;;;14.02;12.70;;;19.20;99.90;;;;;;5032785;28;20465;-76
2022/06/26 00:32:01;;;;;;;15.05;13.55;;;19.20;99.90;;;;;;4998850;28;20052;-76
2022/06/26 00:34:28;;;;;;;13.82;12.52;;;19.20;99.90;;;;;;5032565;28;20033;-77
2022/06/26 00:36:53;;;;;;;16.27;13.98;;;19.20;99.90;;;;;;5014661;28;20033;-77
2022/06/26 00:39:19;;;;;;;19.67;14.93;;;19.10;99.90;;;;;;5032822;28;20450;-76
2022/06/26 00:41:44;;;;;;;16.17;13.88;;;19.10;99.90;;;;;;5014760;28;20072;-77
2022/06/26 00:44:15;;;;;;;16.60;14.75;;;19.00;99.90;;;;;;5032617;28;20045;-76
2022/06/26 00:46:42;;;;;;;17.80;15.00;;;19.00;99.90;;;;;;5032068;28;20049;-76
2022/06/26 00:49:08;;;;;;;15.80;14.25;;;19.00;99.90;;;;;;5032393;28;20033;-76
2022/06/26 00:51:35;;;;;;;17.35;15.45;;;19.00;99.90;;;;;;5014843;28;20095;-76
2022/06/26 00:54:00;;;;;;;16.55;14.60;;;18.90;99.90;;;;;;5032673;28;20098;-76
2022/06/26 00:56:26;;;;;;;16.83;15.02;;;18.90;99.90;;;;;;5032169;28;20125;-77
2022/06/26 00:58:52;;;;;;;18.98;16.35;;;19.00;99.90;;;;;;5014611;28;20552;-77
2022/06/26 01:01:17;;;;;;;18.83;16.85;;;18.90;99.90;;;;;;5032154;28;20163;-76
2022/06/26 01:03:43;;;;;;;19.95;17.67;;;18.90;99.90;;;;;;5032108;28;20078;-76
2022/06/26 01:06:09;;;;;;;19.05;16.20;;;18.90;99.90;;;;;;5031735;28;20040;-77
2022/06/26 01:08:35;;;;;;;19.50;16.90;;;18.80;99.90;;;;;;4997961;28;20046;-77
2022/06/26 01:11:01;;;;;;;21.00;18.17;;;18.90;99.90;;;;;;4997976;28;20458;-76
2022/06/26 01:13:28;;;;;;;20.83;18.63;;;18.80;99.90;;;;;;5031839;28;20091;-77
2022/06/26 01:15:53;;;;;;;20.33;17.75;;;18.90;99.90;;;;;;5031711;28;20041;-76
2022/06/26 01:18:19;;;;;;;23.67;18.55;;;18.90;99.90;;;;;;5031885;28;20503;-76
2022/06/26 01:20:53;;;;;;;21.88;19.58;;;18.90;99.90;;;;;;5032126;28;20033;-76
2022/06/26 01:23:19;;;;;;;20.30;18.08;;;18.90;99.90;;;;;;5014238;28;20052;-76
2022/06/26 01:25:48;;;;;;;21.42;17.90;;;18.90;99.90;;;;;;5031641;28;20124;-76
2022/06/26 01:28:15;;;;;;;21.10;18.83;;;18.90;99.90;;;;;;5014432;28;20490;-77
2022/06/26 01:30:41;;;;;;;22.88;18.42;;;18.90;99.90;;;;;;5031565;28;20095;-77
2022/06/26 01:33:08;;;;;;;24.80;19.80;;;18.90;99.90;;;;;;5032250;28;20033;-76
2022/06/26 01:35:33;;;;;;;27.25;21.23;;;18.70;99.90;;;;;;5031830;28;20056;-77
2022/06/26 01:38:20;;;;;;;24.70;20.48;;;18.70;99.90;;;;;;5032195;28;20038;-78
2022/06/26 01:40:46;;;;;;;22.98;20.23;;;18.50;99.90;;;;;;5031698;28;20045;-77
2022/06/26 01:43:16;;;;;;;22.95;20.50;;;18.50;99.90;;;;;;5031602;28;20098;-77
2022/06/26 01:46:04;;;;;;;22.10;19.20;;;18.70;99.90;;;;;;4997153;28;20068;-77
2022/06/26 01:48:31;;;;;;;20.40;17.52;;;18.70;99.90;;;;;;5014265;28;20482;-77
2022/06/26 01:50:58;;;;;;;21.65;18.83;;;18.70;99.90;;;;;;5031373;28;20087;-77
2022/06/26 01:53:24;;;;;;;25.13;18.85;;;18.70;99.90;;;;;;5031700;28;20379;-77
2022/06/26 01:55:50;;;;;;;20.00;17.88;;;18.80;99.90;;;;;;5031261;28;20120;-78
2022/06/26 01:58:16;;;;;;;19.00;16.58;;;18.80;99.90;;;;;;5031721;28;20069;-77
2022/06/26 02:00:44;;;;;;;19.63;15.70;;;18.80;99.90;;;;;;5031499;28;20033;-77
2022/06/26 02:03:10;;;;;;;17.98;16.05;;;18.90;99.90;;;;;;5031585;28;20495;-77
2022/06/26 02:05:36;;;;;;;19.98;16.73;;;18.90;99.90;;;;;;5013468;28;20045;-77
2022/06/26 02:08:02;;;;;;;17.90;15.25;;;18.80;99.90;;;;;;5031430;28;20654;-77
2022/06/26 02:15:58;;;;;;;17.25;15.45;;;18.90;99.90;;;;;;5013389;28;20487;-77
2022/06/26 02:18:24;;;;;;;17.58;15.68;;;18.90;99.90;;;;;;5013713;28;20041;-76
2022/06/26 02:20:51;;;;;;;17.00;14.70;;;18.80;99.90;;;;;;5031241;28;20046;-77
2022/06/26 02:23:17;;;;;;;18.80;14.70;;;18.90;99.90;;;;;;5013684;28;20151;-77
2022/06/26 02:25:43;;;;;;;15.82;13.98;;;18.90;99.90;;;;;;5034820;28;20033;-77
2022/06/26 02:28:09;;;;;;;16.90;14.60;;;18.90;99.90;;;;;;5001279;28;20436;-77
2022/06/26 02:30:34;;;;;;;15.85;14.15;;;18.90;99.90;;;;;;5001074;28;20041;-77
2022/06/26 02:33:00;;;;;;;17.73;13.65;;;18.80;99.90;;;;;;5017316;28;20045;-77
2022/06/26 02:35:27;;;;;;;16.25;14.55;;;18.80;99.90;;;;;;5034625;28;20037;-77
2022/06/26 02:37:54;;;;;;;17.38;15.13;;;18.80;99.90;;;;;;5017422;28;20076;-77
2022/06/26 02:40:21;;;;;;;21.88;16.25;;;18.80;99.90;;;;;;5017321;28;20494;-77
2022/06/26 02:42:47;;;;;;;20.25;17.25;;;18.80;99.90;;;;;;5034898;28;20051;-78
2022/06/26 02:45:13;;;;;;;24.05;17.65;;;18.70;99.90;;;;;;5016722;28;20124;-78
2022/06/26 02:47:39;;;;;;;23.50;18.42;;;18.60;99.90;;;;;;5016965;28;20281;-78
2022/06/26 02:50:06;;;;;;;24.30;18.98;;;18.60;99.90;;;;;;5000617;28;20522;-76
2022/06/26 02:52:31;;;;;;;22.50;18.98;;;18.70;99.90;;;;;;5034500;28;20415;-76
2022/06/26 02:54:57;;;;;;;25.60;18.58;;;18.60;99.90;;;;;;5034696;28;20042;-78
2022/06/26 02:57:23;;;;;;;21.73;16.25;;;18.50;99.90;;;;;;5034623;28;20057;-77
2022/06/26 02:59:48;;;;;;;24.40;16.85;;;18.50;99.90;;;;;;5034547;28;20487;-75
2022/06/26 03:02:14;;;;;;;20.48;16.65;;;18.30;99.90;;;;;;5034334;28;20406;-76
2022/06/26 03:04:40;;;;;;;20.10;15.13;;;18.20;99.90;;;;;;5034360;28;20410;-77
2022/06/26 03:07:05;;;;;;;19.38;14.90;;;18.20;99.90;;;;;;5034225;28;20146;-77
2022/06/26 03:09:31;;;;;;;16.35;14.45;;;18.30;99.90;;;;;;5034519;28;20038;-76
2022/06/26 03:11:57;;;;;;;17.00;14.07;;;18.20;99.90;;;;;;5056284;22;20049;-69
2022/06/26 03:14:22;;;;;;;18.85;13.70;;;18.10;99.90;;;;;;5016058;28;20564;-69
2022/06/26 03:16:48;;;;;;;15.18;12.63;;;18.00;99.90;;;;;;5015441;28;20045;-69
2022/06/26 03:19:13;;;;;;;13.07;10.40;;;18.00;99.90;;;;;;5016198;28;20041;-69
2022/06/26 03:21:39;;;;;;;14.90;10.05;;;18.10;99.90;;;;;;5016126;28;20045;-69
2022/06/26 03:24:05;;;;;;;11.50;9.30;;;17.90;99.90;;;;;;5034054;28;20403;-69
2022/06/26 03:26:32;;;;;;;11.77;8.48;;;18.00;99.90;;;;;;5015679;28;20049;-69
2022/06/26 03:28:59;;;;;;;9.52;7.97;;;17.80;99.90;;;;;;5016137;28;20072;-69
2022/06/26 03:31:25;;;;;;;12.05;8.27;;;17.80;99.90;;;;;;5033491;28;20037;-69
2022/06/26 03:33:50;;;;;;;10.23;8.07;;;17.70;99.90;;;;;;5015891;28;20041;-69
2022/06/26 03:36:16;;;;;;;10.30;7.80;;;17.90;99.90;;;;;;4998939;28;20465;-69
2022/06/26 03:38:43;;;;;;;10.93;7.80;;;17.80;99.90;;;;;;5015841;28;20095;-69
2022/06/26 03:41:09;;;;;;;8.27;6.68;;;17.90;99.90;;;;;;5016026;28;20084;-69
2022/06/26 03:43:35;;;;;;;9.13;6.38;;;17.70;99.90;;;;;;5015940;28;20053;-69
2022/06/26 03:46:01;;;;;;;7.53;6.68;;;17.90;99.90;;;;;;5015245;28;20046;-69
2022/06/26 03:48:26;;;;;;;8.57;6.72;;;17.90;99.90;;;;;;4999214;28;20120;-69
2022/06/26 03:50:52;;;;;;;10.10;7.25;;;17.90;99.90;;;;;;5033261;28;20041;-69
2022/06/26 03:53:17;;;;;;;10.40;6.45;;;17.90;99.90;;;;;;5015750;28;20045;-69
2022/06/26 03:55:43;;;;;;;7.75;6.95;;;17.80;99.90;;;;;;5015218;28;20041;-69
2022/06/26 03:58:08;;;;;;;8.18;5.88;;;17.80;99.90;;;;;;5033248;28;20510;-69
2022/06/26 04:00:34;;;;;;;7.93;6.88;;;17.80;99.90;;;;;;5032987;28;20041;-69
2022/06/26 04:03:05;;;;;;;7.15;6.45;;;17.80;99.90;;;;;;5015694;28;20041;-69
2022/06/26 04:05:32;;;;;;;10.23;6.65;;;17.80;99.90;;;;;;5032864;28;20048;-69
2022/06/26 04:07:58;;;;;;;8.88;7.38;;;17.90;99.90;;;;;;5033020;28;20056;-69
2022/06/26 04:10:24;;;;;;;8.00;6.55;;;17.70;99.90;;;;;;5015324;28;20112;-69
2022/06/26 04:12:49;;;;;;;11.68;5.97;;;17.70;99.90;;;;;;5014885;28;20112;-69
2022/06/26 04:15:15;;;;;;;7.85;6.13;;;17.80;99.90;;;;;;5014738;28;20096;-69
2022/06/26 04:17:40;;;;;;;7.70;5.47;;;17.70;99.90;;;;;;5033045;28;20041;-69
2022/06/26 04:20:07;;;;;;;7.75;5.90;;;17.80;99.90;;;;;;5015305;28;20045;-69
2022/06/26 04:22:33;;;;;;;8.00;5.60;;;17.60;99.90;;;;;;5014976;28;20046;-69
2022/06/26 04:24:58;;;;;;;7.80;5.68;;;17.60;99.90;;;;;;4998253;28;20396;-69
2022/06/26 04:27:24;;;;;;;8.48;6.15;;;17.60;99.90;;;;;;5032696;28;20473;-68
2022/06/26 04:29:49;;;;;;;6.43;4.55;;;17.60;99.90;;;;;;5032532;28;20046;-69
2022/06/26 04:32:15;;;;;;;7.03;5.18;;;17.60;99.90;;;;;;5032606;28;20121;-69
2022/06/26 04:34:41;;;;;;;7.30;5.57;;;17.70;99.90;;;;;;5032640;28;20072;-69
2022/06/26 04:37:07;;;;;;;8.98;4.88;;;17.70;99.90;;;;;;5014400;28;20037;-69
2022/06/26 04:39:32;;;;;;;6.32;5.18;;;17.70;99.90;;;;;;5032512;28;20083;-69
2022/06/26 04:41:58;;;;;;;7.13;5.78;;;17.70;99.90;;;;;;5032252;28;20102;-69
2022/06/26 04:44:24;;;;;;;6.93;5.00;;;17.60;99.90;;;;;;5014618;28;20518;-69
2022/06/26 04:46:49;;;;;;;6.38;4.30;;;17.60;99.90;;;;;;5031368;28;20037;-69
2022/06/26 04:49:15;;;;;;;5.65;4.95;;;17.80;99.90;;;;;;5014831;28;20045;-69
2022/06/26 04:51:41;;;;;;;7.55;4.72;;;17.60;99.90;;;;;;5014388;28;20605;-69
2022/06/26 04:54:08;;;;;;;6.65;5.60;;;17.80;99.90;;;;;;5032181;28;20068;-69
2022/06/26 04:56:34;;;;;;;6.85;5.18;;;17.60;99.90;;;;;;5014052;28;20132;-69
2022/06/26 04:59:00;;;;;;;7.43;4.25;;;17.60;99.90;;;;;;5031913;28;20034;-69
2022/06/26 05:01:26;;;;;;;7.35;4.72;;;17.70;99.90;;;;;;5014439;28;20560;-69
2022/06/26 05:03:52;;;;;;;4.88;4.30;;;17.60;99.90;;;;;;5032197;28;20121;-69
2022/06/26 05:06:18;;;;;;;4.90;4.40;;;17.70;99.90;;;;;;5014030;28;20123;-69
2022/06/26 05:08:43;;;;;;;5.80;5.07;;;17.80;99.90;;;;;;5014192;28;20037;-69
2022/06/26 05:11:09;;;;;;;9.00;5.18;;;17.70;99.90;;;;;;5031976;28;20474;-69
2022/06/26 05:13:34;;;;;;;7.65;4.75;;;17.70;99.90;;;;;;5032281;28;20038;-69
2022/06/26 05:16:00;;;;;;;6.07;4.90;;;17.80;99.90;;;;;;5031673;28;20080;-69
2022/06/26 05:18:27;;;;;;;5.80;4.32;;;17.80;99.90;;;;;;5031655;28;20376;-69
2022/06/26 05:20:52;;;;;;;6.63;4.55;;;17.80;99.90;;;;;;5031929;28;20498;-69
2022/06/26 05:23:18;;;;;;;6.18;4.47;;;17.90;99.90;;;;;;5014082;28;20087;-69
2022/06/26 05:25:44;;;;;;;7.75;4.88;;;17.80;99.90;;;;;;5013599;28;20056;-69
2022/06/26 05:28:10;;;;;;;6.88;4.88;;;17.90;99.90;;;;;;5031597;28;20033;-69
2022/06/26 05:30:36;;;;;;;6.07;5.20;;;18.00;99.90;;;;;;4997611;28;20052;-69
2022/06/26 05:33:03;;;;;;;9.18;5.18;;;18.00;99.90;;;;;;5013924;28;20038;-69
2022/06/26 05:35:29;;;;;;;9.13;7.25;;;18.00;99.90;;;;;;5013636;28;20494;-69
2022/06/26 05:37:55;;;;;;;6.03;5.25;;;18.20;99.90;;;;;;5031868;28;20552;-69
2022/06/26 05:40:21;;;;;;;7.28;5.38;;;18.10;99.90;;;;;;5014045;28;20037;-69
2022/06/26 05:42:46;;;;;;;11.15;6.45;;;18.00;99.90;;;;;;5013960;28;20045;-69
2022/06/26 05:45:12;;;;;;;7.68;5.70;;;18.10;99.90;;;;;;5031360;28;20037;-69
2022/06/26 05:47:38;;;;;;;7.95;5.68;;;18.00;99.90;;;;;;5013800;28;20049;-69
2022/06/26 05:50:05;;;;;;;8.18;5.78;;;18.10;99.90;;;;;;5014017;28;20033;-69
2022/06/26 05:52:30;;;;;;;7.30;5.22;;;18.00;99.90;;;;;;5013876;28;20494;-69
2022/06/26 05:54:56;;;;;;;8.95;5.70;;;18.10;99.90;;;;;;5031060;28;20048;-69
2022/06/26 05:57:21;;;;;;;9.27;6.65;;;17.90;99.90;;;;;;5013995;28;20044;-69
2022/06/26 05:59:47;;;;;;;7.45;6.55;;;18.00;99.90;;;;;;5035490;28;20026;-68
2022/06/26 06:02:13;;;;;;;11.15;7.10;;;18.10;99.90;;;;;;5017595;28;20050;-69
2022/06/26 06:04:39;;;;;;;8.98;6.05;;;18.20;99.90;;;;;;5035370;28;20418;-69
2022/06/26 06:07:05;;;;;;;7.05;6.38;;;18.20;99.90;;;;;;5017296;28;20406;-69
2022/06/26 06:09:31;;;;;;;7.22;6.53;;;18.30;99.90;;;;;;5035221;28;20037;-69
2022/06/26 06:11:57;;;;;;;8.40;6.70;;;18.50;99.90;;;;;;5034926;28;20041;-69
2022/06/26 06:14:23;;;;;;;8.20;6.93;;;18.40;99.90;;;;;;5017642;28;20368;-69
2022/06/26 06:16:49;;;;;;;8.27;6.85;;;18.60;99.90;;;;;;5017381;28;20049;-69
2022/06/26 06:19:14;;;;;;;9.32;7.57;;;18.50;99.90;;;;;;5017636;28;20045;-68
2022/06/26 06:21:40;;;;;;;8.55;7.30;;;18.60;99.90;;;;;;5000915;28;20507;-69
2022/06/26 06:24:06;;;;;;;12.27;9.23;;;18.50;99.90;;;;;;5017150;28;20097;-69
2022/06/26 06:26:31;;;;;;;12.30;9.10;;;18.50;99.90;;;;;;5016716;28;20049;-69
2022/06/26 06:28:57;;;;;;;11.38;8.75;;;18.50;99.90;;;;;;5035079;28;20455;-69
2022/06/26 06:31:23;;;;;;;10.73;9.57;;;18.60;99.90;;;;;;5017278;28;20045;-69
2022/06/26 06:33:48;;;;;;;12.88;10.45;;;18.60;99.90;;;;;;5017249;28;20129;-68
2022/06/26 06:36:15;;;;;;;11.55;10.20;;;18.50;99.90;;;;;;5034590;28;20044;-69
2022/06/26 06:38:40;;;;;;;13.05;10.25;;;18.80;99.90;;;;;;5034711;28;20069;-69
2022/06/26 06:41:06;;;;;;;15.00;12.57;;;18.80;99.90;;;;;;5034599;28;20464;-68
2022/06/26 06:43:32;;;;;;;15.10;12.07;;;18.70;99.90;;;;;;5034824;28;20049;-69
2022/06/26 06:45:58;;;;;;;15.38;12.77;;;18.80;99.90;;;;;;5034342;28;20495;-68
2022/06/26 06:48:26;;;;;;;16.13;13.23;;;18.70;99.90;;;;;;5034653;28;20095;-69
2022/06/26 06:50:53;;;;;;;16.67;13.88;;;18.80;99.90;;;;;;5034441;28;20116;-68
2022/06/26 06:53:19;;;;;;;17.70;14.65;;;18.70;99.90;;;;;;5034340;28;20092;-69
2022/06/26 06:55:45;;;;;;;18.60;15.70;;;18.60;99.90;;;;;;5016294;28;20056;-69
2022/06/26 06:58:11;;;;;;;22.38;16.45;;;18.80;99.90;;;;;;5024364;28;20033;-68
2022/06/26 07:00:36;;;;;;;24.67;16.67;;;18.70;99.90;;;;;;5022403;28;20526;-69
2022/06/26 07:03:03;;;;;;;21.98;18.60;;;18.70;99.90;;;;;;5015882;28;20037;-68
2022/06/26 07:05:30;;;;;;;20.30;16.65;;;18.70;99.90;;;;;;5020033;28;20049;-68
2022/06/26 07:07:56;;;;;;;23.33;18.38;;;18.80;99.90;;;;;;5028406;28;20041;-68
2022/06/26 07:10:22;;;;;;;22.23;17.20;;;18.80;99.90;;;;;;5033125;28;20038;-68
2022/06/26 07:12:52;;;;;;;23.35;17.83;;;18.70;99.90;;;;;;5033833;28;20036;-69
2022/06/26 07:15:18;;;;;;;23.27;19.30;;;18.90;99.90;;;;;;5033669;28;20560;-69
2022/06/26 07:17:44;;;;;;;24.10;20.30;;;18.80;99.90;;;;;;5016255;28;20045;-69
2022/06/26 07:20:10;;;;;;;25.50;19.63;;;18.80;99.90;;;;;;5034029;28;20045;-69
2022/06/26 07:22:35;;;;;;;26.90;21.15;;;18.80;99.90;;;;;;5033793;28;20041;-68
2022/06/26 07:25:01;;;;;;;27.70;22.15;;;18.80;99.90;;;;;;5027811;28;20456;-68
2022/06/26 07:27:26;;;;;;;23.70;20.52;;;18.60;99.90;;;;;;5024843;28;20426;-69
2022/06/26 07:29:52;;;;;;;25.23;21.90;;;18.60;99.90;;;;;;5005246;28;20091;-68
2022/06/26 07:32:18;;;;;;;26.15;20.48;;;18.70;99.90;;;;;;5017999;28;20177;-70
2022/06/26 07:34:44;;;;;;;27.05;21.20;;;18.80;99.90;;;;;;4996316;28;20042;-68
2022/06/26 07:37:09;;;;;;;24.38;20.67;;;18.80;99.90;;;;;;4996309;28;20048;-69
2022/06/26 07:39:35;;;;;;;25.67;21.23;;;19.00;99.90;;;;;;5014073;28;20044;-68
2022/06/26 07:42:00;;;;;;;29.38;21.75;;;19.30;99.90;;;;;;5013903;28;20112;-68
2022/06/26 07:44:26;;;;;;;24.23;20.60;;;19.70;99.90;;;;;;5013793;28;20052;-69
2022/06/26 07:46:51;;;;;;;22.50;20.13;;;20.00;99.90;;;;;;5013270;28;20056;-68
2022/06/26 07:49:17;;;;;;;24.05;20.08;;;20.20;99.90;;;;;;5013601;28;20081;-68
2022/06/26 07:51:43;;;;;;;26.40;20.30;;;20.60;99.90;;;;;;5013396;28;20410;-68
2022/06/26 07:54:09;;;;;;;22.00;19.48;;;20.80;99.90;;;;;;4995909;28;20512;-69
2022/06/26 07:56:35;;;;;;;22.77;18.48;;;20.70;99.90;;;;;;4995857;28;20045;-69
2022/06/26 07:59:01;;;;;;;24.27;20.20;;;20.50;99.90;;;;;;5013533;28;20048;-69
2022/06/26 08:01:27;;;;;;;24.10;19.33;;;20.20;99.90;;;;;;5013427;28;20042;-69
2022/06/26 08:03:53;;;;;;;18.50;16.58;;;20.20;99.90;;;;;;5013295;28;20116;-69
2022/06/26 08:06:19;;;;;;;18.98;16.02;;;19.90;99.90;;;;;;4995302;28;20081;-69
2022/06/26 08:08:45;;;;;;;20.10;16.60;;;19.90;99.90;;;;;;5013129;28;20048;-68
2022/06/26 08:11:11;;;;;;;17.70;14.90;;;19.80;99.90;;;;;;5013172;28;20038;-68
2022/06/26 08:13:37;;;;;;;20.38;15.82;;;20.00;99.90;;;;;;5013173;28;20092;-69
2022/06/26 08:16:02;;;;;;;22.23;18.33;;;19.90;99.90;;;;;;5013351;28;20073;-69
2022/06/26 08:18:28;;;;;;;23.08;17.17;;;19.70;99.90;;;;;;5013175;28;20209;-69
2022/06/26 08:20:53;;;;;;;23.60;18.88;;;19.70;99.90;;;;;;5012867;28;20116;-68
2022/06/26 08:23:19;;;;;;;22.95;17.25;;;19.80;99.90;;;;;;5012967;28;20465;-68
2022/06/26 08:25:45;;;;;;;21.25;17.75;;;20.00;99.90;;;;;;5012552;28;20091;-69
2022/06/26 08:28:11;;;;;;;21.25;16.75;;;20.70;99.90;;;;;;5012927;28;20484;-68
2022/06/26 08:30:36;;;;;;;18.58;16.05;;;21.10;99.90;;;;;;4995216;28;20048;-69
2022/06/26 08:33:02;;;;;;;21.30;17.23;;;21.20;99.90;;;;;;5012865;28;20034;-69
2022/06/26 08:35:28;;;;;;;16.73;14.20;;;21.30;99.90;;;;;;5012478;28;20052;-69
2022/06/26 08:37:55;;;;;;;17.65;14.93;;;21.30;99.90;;;;;;5012669;28;20064;-72
2022/06/26 08:40:21;;;;;;;15.70;14.10;;;21.50;99.90;;;;;;5012796;28;20046;-69
2022/06/26 08:42:49;;;;;;;16.42;14.73;;;21.90;99.90;;;;;;5012750;28;20129;-69
2022/06/26 08:45:18;;;;;;;15.48;13.60;;;22.30;99.90;;;;;;5012307;28;20038;-69
2022/06/26 08:47:45;;;;;;;16.13;13.10;;;22.50;99.90;;;;;;5012650;28;20038;-69
2022/06/26 08:50:11;;;;;;;22.17;17.20;;;22.90;99.90;;;;;;5012488;28;20388;-69
2022/06/26 08:52:38;;;;;;;16.00;13.98;;;23.30;99.90;;;;;;5012588;28;20088;-69
2022/06/26 08:55:04;;;;;;;18.83;15.15;;;23.60;99.90;;;;;;5012300;28;20096;-69
2022/06/26 08:57:33;;;;;;;17.88;14.88;;;23.40;99.90;;;;;;5012574;28;20034;-69
2022/06/26 08:59:59;;;;;;;17.85;15.45;;;23.10;99.90;;;;;;4995158;28;20042;-69
2022/06/26 09:02:24;;;;;;;18.42;14.88;;;22.80;99.90;;;;;;5012290;28;20121;-69
2022/06/26 09:04:50;;;;;;;17.00;15.18;;;22.40;99.90;;;;;;5011985;28;20033;-69
2022/06/26 09:07:15;;;;;;;16.58;14.38;;;22.10;99.90;;;;;;5012348;28;20042;-69
2022/06/26 09:09:41;;;;;;;16.70;14.52;;;21.80;99.90;;;;;;4994770;28;20046;-69
2022/06/26 09:12:07;;;;;;;17.15;14.45;;;21.50;99.90;;;;;;5044015;23;20049;-75
2022/06/26 09:14:33;;;;;;;16.15;13.45;;;21.40;99.90;;;;;;5032242;28;20041;-76
2022/06/26 09:16:59;;;;;;;15.02;13.52;;;21.20;99.90;;;;;;5031487;28;20128;-76
2022/06/26 09:19:30;;;;;;;15.95;13.15;;;21.10;99.90;;;;;;5031987;28;20040;-75
2022/06/26 09:22:13;;;;;;;13.50;12.20;;;21.00;99.90;;;;;;5032129;28;20038;-75
2022/06/26 09:24:40;;;;;;;13.23;11.82;;;21.20;99.90;;;;;;5031913;28;20537;-75
2022/06/26 09:27:14;;;;;;;13.48;11.98;;;21.00;99.90;;;;;;5019538;28;20046;-75
2022/06/26 09:29:40;;;;;;;15.23;12.32;;;21.00;99.90;;;;;;4979523;28;20048;-76
2022/06/26 09:32:16;;;;;;;11.90;10.90;;;20.80;99.90;;;;;;5012586;28;20030;-75
2022/06/26 09:34:54;;;;;;;12.07;10.98;;;20.80;99.90;;;;;;5012593;28;20082;-76
2022/06/26 09:37:21;;;;;;;13.38;11.98;;;21.40;99.90;;;;;;5012219;28;20042;-76
2022/06/26 09:39:47;;;;;;;14.98;11.75;;;21.70;99.90;;;;;;5012162;28;20104;-75
2022/06/26 09:42:18;;;;;;;10.90;9.80;;;21.90;99.90;;;;;;5011946;28;20063;-76
2022/06/26 09:44:49;;;;;;;11.43;10.15;;;22.20;99.90;;;;;;5012040;28;20109;-76
2022/06/26 09:47:28;;;;;;;10.63;9.63;;;22.40;99.90;;;;;;4994260;28;20038;-77
2022/06/26 09:49:56;;;;;;;9.82;8.05;;;22.70;99.90;;;;;;5012075;28;20066;-76
2022/06/26 09:52:24;;;;;;;9.57;7.45;;;23.00;99.90;;;;;;5012393;28;20060;-77
2022/06/26 09:54:50;;;;;;;7.97;7.28;;;23.00;99.90;;;;;;5011571;28;20034;-77
2022/06/26 09:57:16;;;;;;;6.75;5.90;;;22.90;99.90;;;;;;5011772;28;20337;-74
2022/06/26 09:59:42;;;;;;;9.10;6.07;;;22.90;99.90;;;;;;5013286;28;20053;-77
2022/06/26 10:07:55;;;;;;;5.43;3.10;;;23.10;99.90;;;;;;4983578;28;20056;-76
2022/06/26 10:10:24;;;;;;;5.55;3.47;;;22.90;99.90;;;;;;5013654;28;20505;-77
2022/06/26 10:12:56;;;;;;;4.10;2.95;;;22.60;99.90;;;;;;4997214;28;20495;-75
2022/06/26 10:15:26;;;;;;;3.20;2.50;;;22.50;99.90;;;;;;5030929;28;20042;-76
2022/06/26 10:18:30;;;;;;;3.47;2.92;;;22.30;99.90;;;;;;5013592;28;20057;-76
2022/06/26 10:20:58;;;;;;;4.30;2.50;;;22.40;99.90;;;;;;5030658;28;20034;-77
2022/06/26 10:23:38;;;;;;;3.22;2.58;;;22.30;99.90;;;;;;5013696;28;20403;-76
2022/06/26 10:26:21;;;;;;;5.05;2.83;;;22.30;99.90;;;;;;5030669;28;20056;-75
2022/06/26 10:29:06;;;;;;;;;;;22.30;99.90;;;;;;5013668;28;20068;-76
2022/06/26 10:31:49;;;;;;;3.88;2.88;;;22.40;99.90;;;;;;5031092;28;19964;-75
2022/06/26 10:34:21;;;;;;;7.55;3.75;;;22.90;99.90;;;;;;4996727;28;20542;-75
2022/06/26 10:37:18;;;;;;;6.78;4.03;;;23.40;99.90;;;;;;5031130;28;20049;-75
2022/06/26 10:39:46;;;;;;;6.95;4.95;;;23.50;99.70;;;;;;4994150;28;20140;-74
2022/06/26 10:45:30;;;;;;;7.68;4.03;;;23.50;99.60;;;;;;5032283;28;20061;-75
2022/06/26 10:48:05;;;;;;;4.10;3.70;;;23.40;99.50;;;;;;5034729;28;20037;-75
2022/06/26 10:50:41;;;;;;;4.15;3.72;;;23.30;99.90;;;;;;5034842;28;20482;-75
2022/06/26 10:53:22;;;;;;;6.38;3.85;;;23.10;99.60;;;;;;5016724;28;20037;-76
2022/06/26 10:55:52;;;;;;;5.10;3.42;;;23.10;99.90;;;;;;5033163;28;20384;-77
2022/06/26 10:58:28;;;;;;;7.10;3.63;;;22.90;99.90;;;;;;5034904;28;20120;-77
2022/06/26 11:01:00;;;;;;;4.85;3.38;;;22.80;99.90;;;;;;5034308;28;20033;-75
2022/06/26 11:03:27;;;;;;;5.10;3.03;;;22.60;99.40;;;;;;5034427;28;20049;-75
2022/06/26 11:06:00;;;;;;;4.18;3.78;;;22.50;99.90;;;;;;5033851;28;20093;-75
2022/06/26 11:08:50;;;;;;;7.50;4.65;;;22.40;99.90;;;;;;5034441;28;20407;-76
2022/06/26 11:11:20;;;;;;;7.53;3.75;;;22.40;99.90;;;;;;5034089;28;20556;-75
2022/06/26 11:14:09;;;;;;;5.35;4.00;;;22.50;99.90;;;;;;5034256;28;20116;-75
2022/06/26 11:16:45;;;;;;;4.78;3.80;;;22.60;99.90;;;;;;5021184;28;20045;-74
2022/06/26 11:19:27;;;;;;;4.90;2.88;;;22.50;99.90;;;;;;5016678;28;20099;-75
2022/06/26 11:22:12;;;;;;;4.85;3.42;;;22.70;99.90;;;;;;5016246;28;20426;-75
2022/06/26 11:24:52;;;;;;;3.90;2.60;;;22.80;99.90;;;;;;5016392;28;20037;-76
2022/06/26 11:27:22;;;;;;;3.15;2.80;;;22.90;99.90;;;;;;5016137;28;20037;-76
2022/06/26 11:29:48;;;;;;;6.35;2.97;;;22.80;98.90;;;;;;5034212;28;20084;-74
2022/06/26 11:32:14;;;;;;;6.03;3.00;;;22.90;98.50;;;;;;5016194;28;20112;-76
2022/06/26 11:34:53;;;;;;;5.47;3.03;;;23.20;99.70;;;;;;5033785;28;20030;-75
2022/06/26 11:37:32;;;;;;;4.25;2.75;;;23.20;97.50;;;;;;5016200;28;20042;-74
2022/06/26 11:39:57;;;;;;;3.33;2.55;;;23.20;98.30;;;;;;5015990;28;20037;-75
2022/06/26 11:42:24;;;;;;;3.83;3.00;;;23.20;97.90;;;;;;5033855;28;20383;-75
2022/06/26 11:44:52;;;;;;;3.67;2.63;;;23.10;97.90;;;;;;5033491;28;20045;-75
2022/06/26 11:47:19;;;;;;;3.53;2.65;;;23.20;98.30;;;;;;5015910;28;20454;-75
2022/06/26 11:49:45;;;;;;;10.30;2.80;;;23.30;98.50;;;;;;5016007;28;20042;-75
2022/06/26 11:52:12;;;;;;;5.25;2.97;;;23.10;98.30;;;;;;5033530;28;20037;-74
2022/06/26 11:54:38;;;;;;;3.70;2.42;;;23.10;98.00;;;;;;5015784;28;20041;-75
2022/06/26 11:57:11;;;;;;;3.60;2.22;;;23.10;97.10;;;;;;5015096;28;20052;-75
2022/06/26 11:59:45;;;;;;;3.70;2.15;;;23.00;98.00;;;;;;5033348;28;20042;-75
2022/06/26 12:02:24;;;;;;;4.20;2.50;;;23.20;98.10;;;;;;5015401;28;20095;-75
2022/06/26 12:05:00;;;;;;;5.43;2.10;;;23.30;96.20;;;;;;5033617;28;20081;-75
2022/06/26 12:07:38;;;;;;;4.18;2.10;;;23.30;96.20;;;;;;5033294;28;20069;-75
2022/06/26 12:10:04;;;;;;;3.08;1.90;;;23.30;96.10;;;;;;4999048;28;20112;-74
2022/06/26 12:12:29;;;;;;;4.55;2.45;;;23.40;94.90;;;;;;5015473;28;20088;-75
2022/06/26 12:14:55;;;;;;;4.07;2.05;;;23.60;95.70;;;;;;5015158;28;20069;-75
2022/06/26 12:17:26;;;;;;;3.10;2.20;;;23.60;95.50;;;;;;4999259;28;20411;-75
2022/06/26 12:19:52;;;;;;;4.22;2.13;;;23.40;93.70;;;;;;5033122;28;20045;-74
2022/06/26 12:22:29;;;;;;;3.20;2.15;;;23.60;93.80;;;;;;5015450;28;20049;-74
2022/06/26 12:24:55;;;;;;;3.78;2.20;;;23.80;95.10;;;;;;5032881;28;20053;-74
2022/06/26 12:27:32;;;;;;;6.22;2.47;;;23.90;96.10;;;;;;5032998;28;20037;-71
2022/06/26 12:29:57;;;;;;;4.50;2.78;;;23.90;96.30;;;;;;5014800;28;20556;-71
2022/06/26 12:32:23;;;;;;;3.72;2.38;;;23.90;95.60;;;;;;5032764;28;20041;-73
2022/06/26 12:34:48;;;;;;;3.55;2.22;;;23.90;95.50;;;;;;5032599;28;20041;-74
2022/06/26 12:37:14;;;;;;;2.72;2.38;;;24.10;95.60;;;;;;5032635;28;20083;-73
2022/06/26 12:39:39;;;;;;;3.33;2.45;;;24.00;93.80;;;;;;5032702;28;20045;-72
2022/06/26 12:42:05;;;;;;;5.50;2.40;;;24.00;93.30;;;;;;5032705;28;20034;-75
2022/06/26 12:44:31;;;;;;;4.07;2.45;;;24.00;94.00;;;;;;5032483;28;20494;-74
2022/06/26 12:46:57;;;;;;;2.78;2.47;;;23.90;94.70;;;;;;5032280;28;20042;-74
2022/06/26 12:49:22;;;;;;;3.53;2.20;;;23.70;93.80;;;;;;5032575;28;20498;-74
2022/06/26 12:51:48;;;;;;;4.10;2.38;;;23.40;92.80;;;;;;5032246;28;20041;-74